createdAt,value
2018-12-03T00:01:33.804Z,99569.63
2018-12-03T00:04:18.912Z,99564.29
2018-12-03T00:06:48.362Z,99500.44
2018-12-03T00:09:17.521Z,99565.31
2018-12-03T00:11:46.701Z,99561.78
2018-12-03T00:14:15.763Z,99561.02
2018-12-03T00:16:44.844Z,99560.17
2018-12-03T00:19:13.939Z,99558.95
2018-12-03T00:21:43.148Z,99565.30
2018-12-03T00:24:12.199Z,99559.55
2018-12-03T00:26:41.255Z,99559.95
2018-12-03T00:29:10.476Z,99559.69
2018-12-03T00:31:39.520Z,99557.84
2018-12-03T00:34:08.560Z,99557.25
2018-12-03T00:36:37.660Z,99557.47
2018-12-03T00:39:08.398Z,99548.46
2018-12-03T00:41:37.584Z,99558.48
2018-12-03T00:44:06.899Z,99562.04
2018-12-03T00:46:35.969Z,99560.39
2018-12-03T00:49:04.999Z,99558.13
2018-12-03T00:51:33.998Z,99559.06
2018-12-03T00:54:03.094Z,99553.52
2018-12-03T00:56:32.208Z,99551.09
2018-12-03T00:59:01.303Z,99546.61
2018-12-03T01:01:35.759Z,99550.38
2018-12-03T01:04:05.379Z,99547.30
2018-12-03T01:06:34.378Z,99544.06
2018-12-03T01:09:03.507Z,99540.29
2018-12-03T01:11:32.476Z,99543.58
2018-12-03T01:14:01.525Z,99537.49
2018-12-03T01:16:30.535Z,99542.14
2018-12-03T01:18:59.643Z,99534.20
2018-12-03T01:21:28.728Z,99536.61
2018-12-03T01:23:57.849Z,99532.92
2018-12-03T01:26:26.867Z,99528.43
2018-12-03T01:28:55.904Z,99521.55
2018-12-03T01:31:24.984Z,99524.79
2018-12-03T01:33:53.997Z,99514.84
2018-12-03T01:36:23.112Z,99514.44
2018-12-03T01:38:52.164Z,99502.45
2018-12-03T01:41:21.255Z,99504.75
2018-12-03T01:43:50.375Z,99503.34
2018-12-03T01:46:19.396Z,99502.52
2018-12-03T01:48:48.478Z,99502.64
2018-12-03T01:51:17.501Z,99506.33
2018-12-03T01:53:46.610Z,99499.01
2018-12-03T01:56:15.696Z,99499.69
2018-12-03T01:58:44.851Z,99502.30
2018-12-03T02:01:13.938Z,99488.31
2018-12-03T02:03:43.047Z,99488.10
2018-12-03T02:06:12.175Z,99458.80
2018-12-03T02:08:41.218Z,99483.23
2018-12-03T02:11:10.279Z,99489.52
2018-12-03T02:13:39.307Z,99481.42
2018-12-03T02:16:08.439Z,99482.78
2018-12-03T02:18:37.488Z,99480.91
2018-12-03T02:21:06.578Z,99482.56
2018-12-03T02:23:35.629Z,99480.00
2018-12-03T02:26:04.724Z,99476.48
2018-12-03T02:28:33.848Z,99471.42
2018-12-03T02:31:02.870Z,99477.66
2018-12-03T02:33:31.877Z,99468.67
2018-12-03T02:36:00.910Z,99465.55
2018-12-03T02:38:29.996Z,99460.27
2018-12-03T02:40:59.090Z,99459.66
2018-12-03T02:43:28.131Z,99467.02
2018-12-03T02:45:57.157Z,99456.33
2018-12-03T02:48:26.180Z,99455.62
2018-12-03T02:50:55.203Z,99449.59
2018-12-03T02:53:24.272Z,99443.98
2018-12-03T02:55:53.498Z,99441.13
2018-12-03T02:58:22.506Z,99434.45
2018-12-03T03:00:51.615Z,99434.25
2018-12-03T03:03:20.617Z,99435.70
2018-12-03T03:05:49.678Z,99429.70
2018-12-03T03:08:18.689Z,99437.92
2018-12-03T03:10:47.834Z,99437.61
2018-12-03T03:13:16.977Z,99437.64
2018-12-03T03:15:46.024Z,99440.56
2018-12-03T03:18:15.033Z,99446.22
2018-12-03T03:20:44.193Z,99441.35
2018-12-03T03:23:13.242Z,99433.45
2018-12-03T03:25:42.327Z,99431.45
2018-12-03T03:28:11.344Z,99427.97
2018-12-03T03:30:40.414Z,99429.31
2018-12-03T03:33:09.493Z,99430.83
2018-12-03T03:35:38.540Z,99429.63
2018-12-03T03:38:07.636Z,99433.38
2018-12-03T03:40:36.652Z,99432.70
2018-12-03T03:43:06.122Z,99436.80
2018-12-03T03:45:35.141Z,99431.53
2018-12-03T03:48:04.240Z,99438.38
2018-12-03T03:50:33.474Z,99434.91
2018-12-03T03:53:02.502Z,99436.33
2018-12-03T03:55:31.599Z,99433.72
2018-12-03T03:58:00.641Z,99436.23
2018-12-03T04:00:29.849Z,99437.41
2018-12-03T04:02:59.001Z,99434.84
2018-12-03T04:05:28.107Z,99439.81
2018-12-03T04:07:57.284Z,99435.84
2018-12-03T04:10:26.350Z,99437.89
2018-12-03T04:12:55.450Z,99442.02
2018-12-03T04:15:24.634Z,99435.23
2018-12-03T04:17:53.716Z,99427.44
2018-12-03T04:20:22.928Z,99432.79
2018-12-03T04:22:54.305Z,99439.30
2018-12-03T04:25:23.379Z,99438.23
2018-12-03T04:27:52.450Z,99439.41
2018-12-03T04:30:22.412Z,99437.07
2018-12-03T04:32:52.416Z,99427.97
2018-12-03T04:35:21.583Z,99438.55
2018-12-03T04:37:50.597Z,99438.44
2018-12-03T04:40:19.691Z,99436.47
2018-12-03T04:42:48.705Z,99436.63
2018-12-03T04:45:18.744Z,99443.09
2018-12-03T04:47:49.026Z,99443.97
2018-12-03T04:50:19.327Z,99448.70
2018-12-03T04:52:48.392Z,99447.94
2018-12-03T04:55:18.557Z,99446.49
2018-12-03T04:57:47.796Z,99443.28
2018-12-03T05:00:18.298Z,99442.77
2018-12-03T05:02:53.066Z,99438.44
2018-12-03T05:05:22.305Z,99444.94
2018-12-03T05:07:51.612Z,99441.81
2018-12-03T05:10:21.631Z,99443.06
2018-12-03T05:12:52.150Z,99441.16
2018-12-03T05:15:21.214Z,99447.36
2018-12-03T05:17:50.347Z,99440.58
2018-12-03T05:20:21.711Z,99439.27
2018-12-03T05:22:50.811Z,99440.97
2018-12-03T05:25:19.937Z,99439.53
2018-12-03T05:27:48.986Z,99441.51
2018-12-03T05:30:18.535Z,99445.86
2018-12-03T05:32:48.006Z,99445.92
2018-12-03T05:35:24.574Z,99445.09
2018-12-03T05:37:53.720Z,99445.00
2018-12-03T05:40:26.520Z,99445.35
2018-12-03T05:42:55.893Z,99446.45
2018-12-03T05:45:24.964Z,99448.03
2018-12-03T05:47:54.026Z,99455.23
2018-12-03T05:50:23.142Z,99453.02
2018-12-03T05:52:52.191Z,99450.54
2018-12-03T05:55:21.246Z,99464.29
2018-12-03T05:57:50.437Z,99476.96
2018-12-03T06:00:21.907Z,99467.28
2018-12-03T06:02:50.981Z,99468.75
2018-12-03T06:05:20.074Z,99473.39
2018-12-03T06:07:49.212Z,99477.80
2018-12-03T06:10:21.194Z,99473.19
2018-12-03T06:12:50.364Z,99472.73
2018-12-03T06:15:20.277Z,99466.17
2018-12-03T06:17:50.576Z,99471.94
2018-12-03T06:20:20.695Z,99468.59
2018-12-03T06:22:51.322Z,99473.52
2018-12-03T06:25:21.743Z,99475.08
2018-12-03T06:27:51.160Z,99463.19
2018-12-03T06:30:22.253Z,99463.80
2018-12-03T06:32:51.413Z,99462.87
2018-12-03T06:35:20.877Z,99471.36
2018-12-03T06:37:50.307Z,99465.70
2018-12-03T06:40:24.403Z,99458.48
2018-12-03T06:42:53.712Z,99461.45
2018-12-03T06:45:23.633Z,99466.71
2018-12-03T06:48:00.982Z,99461.46
2018-12-03T06:50:30.051Z,99465.31
2018-12-03T06:52:59.154Z,99465.91
2018-12-03T06:55:28.179Z,99466.78
2018-12-03T06:57:57.215Z,99465.69
2018-12-03T07:00:26.836Z,99465.19
2018-12-03T07:02:55.964Z,99460.47
2018-12-03T07:05:24.962Z,99458.65
2018-12-03T07:07:55.620Z,99458.31
2018-12-03T07:10:25.511Z,99464.95
2018-12-03T07:13:01.768Z,99469.08
2018-12-03T07:15:33.016Z,99461.28
2018-12-03T07:18:02.080Z,99468.05
2018-12-03T07:20:31.126Z,99468.40
2018-12-03T07:23:00.188Z,99471.10
2018-12-03T07:25:29.239Z,99470.40
2018-12-03T07:31:33.576Z,99462.17
2018-12-03T07:34:03.456Z,99465.52
2018-12-03T07:36:31.945Z,99455.38
2018-12-03T07:39:00.968Z,99452.89
2018-12-03T07:41:30.032Z,99452.66
2018-12-03T07:43:59.047Z,99447.48
2018-12-03T07:46:28.099Z,99446.27
2018-12-03T07:48:57.124Z,99446.88
2018-12-03T07:51:26.157Z,99447.64
2018-12-03T07:53:56.708Z,99450.44
2018-12-03T07:56:26.400Z,99444.58
2018-12-03T07:58:55.485Z,99436.53
2018-12-03T08:01:25.089Z,99438.52
2018-12-03T08:03:55.112Z,99438.74
2018-12-03T08:06:25.224Z,99438.42
2018-12-03T08:08:54.241Z,99434.86
2018-12-03T08:11:23.281Z,99427.81
2018-12-03T08:13:52.351Z,99427.29
2018-12-03T08:16:21.467Z,99433.45
2018-12-03T08:18:50.688Z,99428.84
2018-12-03T08:21:19.709Z,99436.41
2018-12-03T08:23:54.349Z,99435.64
2018-12-03T08:26:23.673Z,99429.21
2018-12-03T08:28:52.630Z,99425.39
2018-12-03T08:31:21.662Z,99423.02
2018-12-03T08:33:50.661Z,99415.80
2018-12-03T08:36:19.692Z,99408.72
2018-12-03T08:38:48.733Z,99415.88
2018-12-03T08:41:17.887Z,99406.81
2018-12-03T08:43:46.947Z,99407.03
2018-12-03T08:46:16.040Z,99380.22
2018-12-03T08:48:45.062Z,99406.34
2018-12-03T08:51:14.143Z,99402.52
2018-12-03T08:53:46.373Z,99402.14
2018-12-03T08:56:15.403Z,99397.53
2018-12-03T08:58:44.451Z,99406.86
2018-12-03T09:01:16.674Z,99407.61
2018-12-03T09:03:48.707Z,99407.31
2018-12-03T09:06:19.326Z,99403.47
2018-12-03T09:08:49.792Z,99405.95
2018-12-03T09:11:23.005Z,99401.06
2018-12-03T09:13:57.025Z,99393.10
2018-12-03T09:16:26.117Z,99389.57
2018-12-03T09:18:55.899Z,99386.26
2018-12-03T09:21:25.908Z,99384.95
2018-12-03T09:23:57.863Z,99375.25
2018-12-03T09:26:27.755Z,99382.16
2018-12-03T09:28:57.056Z,99376.33
2018-12-03T09:31:26.112Z,99361.44
2018-12-03T09:33:57.504Z,99350.34
2018-12-03T09:36:27.241Z,99346.69
2018-12-03T09:39:13.112Z,99344.20
2018-12-03T09:41:42.695Z,99336.33
2018-12-03T09:44:11.906Z,99327.19
2018-12-03T09:46:41.959Z,99327.19
2018-12-03T09:49:10.990Z,99316.05
2018-12-03T09:51:39.950Z,99309.55
2018-12-03T09:54:10.810Z,99306.77
2018-12-03T09:56:45.557Z,99300.37
2018-12-03T09:59:16.659Z,99291.64
2018-12-03T10:01:47.089Z,99279.66
2018-12-03T10:04:25.472Z,99276.36
2018-12-03T10:06:54.563Z,99271.91
2018-12-03T10:09:23.587Z,99270.95
2018-12-03T10:11:56.904Z,99269.49
2018-12-03T10:14:25.979Z,99260.66
2018-12-03T10:16:55.009Z,99255.83
2018-12-03T10:19:24.086Z,99257.10
2018-12-03T10:21:53.136Z,99252.52
2018-12-03T10:24:22.377Z,99250.92
2018-12-03T10:26:51.995Z,99248.66
2018-12-03T10:29:21.009Z,99248.13
2018-12-03T10:31:50.054Z,99247.42
2018-12-03T10:34:20.151Z,99250.57
2018-12-03T10:36:51.975Z,99245.00
2018-12-03T10:39:24.323Z,99243.84
2018-12-03T10:41:58.445Z,99242.90
2018-12-03T10:44:27.469Z,99240.69
2018-12-03T10:46:58.653Z,99241.23
2018-12-03T10:49:27.671Z,99237.84
2018-12-03T10:51:56.802Z,99230.39
2018-12-03T10:54:25.831Z,99232.56
2018-12-03T10:56:54.886Z,99234.80
2018-12-03T10:59:24.067Z,99238.55
2018-12-03T11:01:55.383Z,99230.02
2018-12-03T11:04:29.574Z,99232.98
2018-12-03T11:06:58.660Z,99241.20
2018-12-03T11:09:33.111Z,99235.91
2018-12-03T11:11:58.095Z,99238.73
2018-12-03T11:14:27.365Z,99244.45
2018-12-03T11:16:56.432Z,99243.33
2018-12-03T11:19:25.616Z,99237.69
2018-12-03T11:21:54.842Z,99231.43
2018-12-03T11:24:23.952Z,99234.77
2018-12-03T11:26:56.292Z,99221.84
2018-12-03T11:29:25.582Z,99216.25
2018-12-03T11:31:54.924Z,99215.63
2018-12-03T11:34:25.090Z,99210.08
2018-12-03T11:36:57.303Z,99200.02
2018-12-03T11:39:43.955Z,99205.25
2018-12-03T11:42:13.791Z,99195.83
2018-12-03T11:44:42.907Z,99195.25
2018-12-03T11:47:14.987Z,99195.77
2018-12-03T11:49:44.109Z,99198.47
2018-12-03T11:52:13.507Z,99193.09
2018-12-03T11:54:42.754Z,99191.25
2018-12-03T11:57:20.458Z,99183.84
2018-12-03T11:59:52.555Z,99186.75
2018-12-03T12:02:22.236Z,99181.84
2018-12-03T12:04:51.521Z,99178.86
2018-12-03T12:07:20.971Z,99174.66
2018-12-03T12:09:51.454Z,99173.66
2018-12-03T12:12:21.136Z,99174.15
2018-12-03T12:14:50.214Z,99166.27
2018-12-03T12:17:19.310Z,99173.50
2018-12-03T12:19:48.354Z,99169.55
2018-12-03T12:22:17.340Z,99162.06
2018-12-03T12:24:46.324Z,99159.64
2018-12-03T12:27:15.335Z,99159.53
2018-12-03T12:29:44.382Z,99154.64
2018-12-03T12:32:13.353Z,99146.36
2018-12-03T12:34:42.383Z,99147.03
2018-12-03T12:37:11.343Z,99149.31
2018-12-03T12:39:40.354Z,99144.67
2018-12-03T12:42:09.449Z,99141.14
2018-12-03T12:44:38.455Z,99148.20
2018-12-03T12:47:07.852Z,99151.53
2018-12-03T12:49:36.964Z,99147.68
2018-12-03T12:52:06.947Z,99148.02
2018-12-03T12:54:35.972Z,99155.70
2018-12-03T12:57:05.082Z,99145.19
2018-12-03T12:59:34.127Z,99154.53
2018-12-03T13:02:03.228Z,99155.56
2018-12-03T13:04:32.357Z,99149.34
2018-12-03T13:07:01.981Z,99148.86
2018-12-03T13:09:31.016Z,99152.05
2018-12-03T13:12:00.158Z,99144.81
2018-12-03T13:14:29.216Z,99149.34
2018-12-03T13:16:58.429Z,99145.97
2018-12-03T13:19:27.550Z,99136.48
2018-12-03T13:21:56.544Z,99136.72
2018-12-03T13:24:25.572Z,99139.09
2018-12-03T13:26:54.716Z,99136.95
2018-12-03T13:29:23.721Z,99135.94
2018-12-03T13:31:57.589Z,99139.72
2018-12-03T13:34:27.361Z,99135.89
2018-12-03T13:36:59.667Z,99131.05
2018-12-03T13:39:37.576Z,99141.28
2018-12-03T13:42:13.138Z,99133.57
2018-12-03T13:44:46.593Z,99130.94
2018-12-03T13:47:25.912Z,99133.63
2018-12-03T13:49:55.000Z,99128.56
2018-12-03T13:52:24.143Z,99134.77
2018-12-03T13:54:53.406Z,99134.22
2018-12-03T13:57:23.407Z,99133.38
2018-12-03T13:59:52.748Z,99129.54
2018-12-03T14:02:22.561Z,99131.18
2018-12-03T14:04:52.600Z,99129.47
2018-12-03T14:07:35.557Z,99133.51
2018-12-03T14:10:53.077Z,99134.09
2018-12-03T14:14:35.205Z,99127.33
2018-12-03T14:17:18.471Z,99125.37
2018-12-03T14:19:52.561Z,99127.15
2018-12-03T14:22:25.159Z,99123.55
2018-12-03T14:24:54.520Z,99117.08
2018-12-03T14:27:25.647Z,99129.63
2018-12-03T14:29:57.082Z,99124.26
2018-12-03T14:32:29.285Z,99120.59
2018-12-03T14:35:02.590Z,99122.70
2018-12-03T14:37:32.602Z,99123.79
2018-12-03T14:40:02.615Z,99125.56
2018-12-03T14:42:31.787Z,99119.74
2018-12-03T14:45:00.875Z,99122.22
2018-12-03T14:47:29.941Z,99118.29
2018-12-03T14:49:59.222Z,99117.98
2018-12-03T14:52:28.368Z,99120.09
2018-12-03T14:54:57.440Z,99116.78
2018-12-03T14:57:26.599Z,99106.38
2018-12-03T14:59:55.651Z,99109.48
2018-12-03T15:02:24.630Z,99106.79
2018-12-03T15:04:53.729Z,99111.68
2018-12-03T15:07:22.795Z,99111.89
2018-12-03T15:09:51.949Z,99112.41
2018-12-03T15:12:21.079Z,99106.86
2018-12-03T15:14:50.213Z,99107.55
2018-12-03T15:17:19.273Z,99111.44
2018-12-03T15:19:48.408Z,99110.55
2018-12-03T15:22:17.451Z,99119.92
2018-12-03T15:24:47.572Z,99124.18
2018-12-03T15:27:15.731Z,99121.48
2018-12-03T15:29:44.729Z,99126.92
2018-12-03T15:32:13.822Z,99123.20
2018-12-03T15:34:42.919Z,99125.99
2018-12-03T15:37:12.020Z,99117.03
2018-12-03T15:39:41.019Z,99126.94
2018-12-03T15:42:10.201Z,99130.13
2018-12-03T15:44:39.212Z,99128.33
2018-12-03T15:47:08.408Z,99134.63
2018-12-03T15:49:37.734Z,99133.44
2018-12-03T15:52:06.803Z,99135.82
2018-12-03T15:54:35.865Z,99134.93
2018-12-03T15:57:05.053Z,99130.61
2018-12-03T15:59:34.097Z,99134.85
2018-12-03T16:02:03.181Z,99125.00
2018-12-03T16:04:32.272Z,99128.41
2018-12-03T16:07:01.285Z,99127.94
2018-12-03T16:09:30.317Z,99131.17
2018-12-03T16:11:59.386Z,99146.02
2018-12-03T16:14:28.407Z,99137.78
2018-12-03T16:16:57.435Z,99137.07
2018-12-03T16:19:26.531Z,99145.81
2018-12-03T16:21:55.530Z,99146.94
2018-12-03T16:24:24.577Z,99147.53
2018-12-03T16:26:53.752Z,99151.95
2018-12-03T16:29:24.329Z,99148.44
2018-12-03T16:31:53.712Z,99151.77
2018-12-03T16:34:24.095Z,99155.94
2018-12-03T16:36:53.821Z,99157.88
2018-12-03T16:39:22.268Z,99152.70
2018-12-03T16:41:52.274Z,99153.48
2018-12-03T16:44:23.700Z,99151.09
2018-12-03T16:46:53.114Z,99156.13
2018-12-03T16:49:23.017Z,99147.39
2018-12-03T16:51:55.068Z,99149.50
2018-12-03T16:54:25.896Z,99157.09
2018-12-03T16:56:56.184Z,99149.38
2018-12-03T16:59:25.228Z,99144.91
2018-12-03T17:01:54.210Z,99123.03
2018-12-03T17:04:24.193Z,99144.52
2018-12-03T17:06:53.291Z,99146.28
2018-12-03T17:09:23.427Z,99146.42
2018-12-03T17:11:52.666Z,99145.09
2018-12-03T17:14:21.929Z,99151.12
2018-12-03T17:16:51.216Z,99145.64
2018-12-03T17:19:20.656Z,99142.08
2018-12-03T17:22:00.032Z,99153.22
2018-12-03T17:24:35.141Z,99149.29
2018-12-03T17:27:04.475Z,99145.44
2018-12-03T17:29:33.663Z,99142.58
2018-12-03T17:32:03.095Z,99142.13
2018-12-03T17:34:32.141Z,99142.77
2018-12-03T17:37:01.300Z,99138.49
2018-12-03T17:39:30.600Z,99142.07
2018-12-03T17:41:59.934Z,99141.20
2018-12-03T17:44:29.078Z,99137.89
2018-12-03T17:46:58.335Z,99136.95
2018-12-03T17:49:27.588Z,99142.20
2018-12-03T17:51:56.864Z,99141.78
2018-12-03T17:54:26.228Z,99141.59
2018-12-03T17:56:56.267Z,99146.63
2018-12-03T17:59:26.968Z,99137.12
2018-12-03T18:01:56.290Z,99138.15
2018-12-03T18:04:25.955Z,99136.20
2018-12-03T18:06:55.610Z,99138.94
2018-12-03T18:09:25.026Z,99138.72
2018-12-03T18:11:54.218Z,99133.38
2018-12-03T18:14:23.594Z,99131.77
2018-12-03T18:16:53.360Z,99130.80
2018-12-03T18:19:25.324Z,99130.51
2018-12-03T18:21:56.910Z,99131.85
2018-12-03T18:24:25.993Z,99137.33
2018-12-03T18:26:55.213Z,99131.72
2018-12-03T18:29:25.414Z,99142.81
2018-12-03T18:35:09.820Z,99134.82
2018-12-03T18:38:18.710Z,99130.64
2018-12-03T18:40:54.890Z,99132.57
2018-12-03T18:43:24.027Z,99125.85
2018-12-03T18:45:53.111Z,99128.00
2018-12-03T18:48:22.300Z,99133.41
2018-12-03T18:50:53.622Z,99142.63
2018-12-03T18:53:26.193Z,99138.13
2018-12-03T18:55:55.449Z,99135.50
2018-12-03T18:58:33.454Z,99133.46
2018-12-03T19:01:03.360Z,99137.58
2018-12-03T19:03:34.818Z,99135.55
2018-12-03T19:06:05.175Z,99140.52
2018-12-03T19:08:34.255Z,99142.15
2018-12-03T19:11:04.525Z,99142.77
2018-12-03T19:13:35.758Z,99148.97
2018-12-03T19:16:05.404Z,99151.08
2018-12-03T19:18:34.800Z,99146.69
2018-12-03T19:21:03.856Z,99144.77
2018-12-03T19:23:33.161Z,99140.73
2018-12-03T19:26:02.939Z,99140.56
2018-12-03T19:28:31.303Z,99133.33
2018-12-03T19:31:05.960Z,99126.23
2018-12-03T19:33:36.061Z,99130.51
2018-12-03T19:36:05.404Z,99134.88
2018-12-03T19:38:34.575Z,99120.28
2018-12-03T19:41:03.711Z,99118.66
2018-12-03T19:43:32.737Z,99111.33
2018-12-03T19:46:01.848Z,99120.78
2018-12-03T19:48:47.845Z,99125.31
2018-12-03T19:51:16.955Z,99125.06
2018-12-03T19:53:46.411Z,99122.98
2018-12-03T19:56:15.467Z,99124.77
2018-12-03T19:58:49.466Z,99120.98
2018-12-03T20:01:19.443Z,99120.22
2018-12-03T20:03:58.198Z,99121.90
2018-12-03T20:06:28.682Z,99116.94
2018-12-03T20:08:59.593Z,99120.39
2018-12-03T20:11:30.429Z,99114.66
2018-12-03T20:14:06.087Z,99115.70
2018-12-03T20:16:35.427Z,99111.52
2018-12-03T20:19:06.353Z,99117.55
2018-12-03T20:21:37.603Z,99114.67
2018-12-03T20:24:10.273Z,99116.91
2018-12-03T20:26:49.411Z,99114.17
2018-12-03T20:29:31.696Z,99114.75
2018-12-03T20:32:20.535Z,99111.32
2018-12-03T20:35:12.220Z,98949.61
2018-12-03T20:37:58.547Z,99116.29
2018-12-03T20:42:28.644Z,99108.45
2018-12-03T20:45:15.500Z,99110.77
2018-12-03T20:47:48.239Z,99114.39
2018-12-03T20:50:28.006Z,99109.66
2018-12-03T20:52:57.220Z,99120.77
2018-12-03T20:55:30.028Z,99113.52
2018-12-03T20:57:59.411Z,99117.84
2018-12-03T21:00:28.521Z,99111.28
2018-12-03T21:03:00.098Z,99108.25
2018-12-03T21:05:29.210Z,99109.52
2018-12-03T21:07:58.321Z,99114.93
2018-12-03T21:10:27.721Z,99110.84
2018-12-03T21:12:56.846Z,99102.72
2018-12-03T21:15:26.249Z,99108.96
2018-12-03T21:17:55.345Z,99114.98
2018-12-03T21:20:32.741Z,99114.32
2018-12-03T21:23:01.925Z,99103.24
2018-12-03T21:25:31.042Z,99104.69
2018-12-03T21:28:00.108Z,99102.66
2018-12-03T21:30:29.237Z,99100.06
2018-12-03T21:32:58.359Z,99101.64
2018-12-03T21:35:27.467Z,99105.33
2018-12-03T21:37:57.332Z,99104.20
2018-12-03T21:40:26.401Z,99093.72
2018-12-03T21:42:55.598Z,99090.05
2018-12-03T21:45:24.679Z,99093.95
2018-12-03T21:47:53.729Z,99095.63
2018-12-03T21:50:22.824Z,99092.69
2018-12-03T21:52:51.897Z,99099.27
2018-12-03T21:55:21.021Z,99099.81
2018-12-03T21:57:50.461Z,99097.59
2018-12-03T22:00:20.661Z,99094.45
2018-12-03T22:02:49.716Z,99091.61
2018-12-03T22:05:18.900Z,99085.89
2018-12-03T22:07:47.933Z,99081.23
2018-12-03T22:10:17.098Z,99082.10
2018-12-03T22:12:47.459Z,99083.00
2018-12-03T22:15:16.504Z,99086.03
2018-12-03T22:17:45.659Z,99081.44
2018-12-03T22:20:14.802Z,99082.02
2018-12-03T22:22:43.882Z,99081.53
2018-12-03T22:25:13.007Z,99072.02
2018-12-03T22:27:42.037Z,99081.30
2018-12-03T22:30:11.786Z,99076.48
2018-12-03T22:32:40.919Z,99075.16
2018-12-03T22:35:10.077Z,99067.09
2018-12-03T22:37:39.147Z,99065.52
2018-12-03T22:40:08.271Z,99067.21
2018-12-03T22:42:37.345Z,99066.83
2018-12-03T22:45:07.377Z,99070.61
2018-12-03T22:47:36.552Z,99072.63
2018-12-03T22:50:05.984Z,99066.75
2018-12-03T22:52:35.108Z,99065.77
2018-12-03T22:55:04.247Z,99063.27
2018-12-03T22:57:33.324Z,99059.95
2018-12-03T23:00:02.516Z,99060.92
2018-12-03T23:02:31.708Z,99055.74
2018-12-03T23:05:00.788Z,99055.77
2018-12-03T23:07:29.857Z,99058.15
2018-12-03T23:09:59.010Z,99046.97
2018-12-03T23:12:28.100Z,99040.59
2018-12-03T23:14:57.208Z,99033.94
2018-12-03T23:17:26.368Z,99033.25
2018-12-03T23:19:55.500Z,99035.88
2018-12-03T23:22:24.613Z,99030.43
2018-12-03T23:24:53.810Z,99029.08
2018-12-03T23:27:23.002Z,99027.45
2018-12-03T23:29:52.104Z,99024.27
2018-12-03T23:32:21.256Z,99022.83
2018-12-03T23:34:50.414Z,99019.68
2018-12-03T23:37:19.685Z,99009.45
2018-12-03T23:39:48.705Z,99016.06
2018-12-03T23:42:17.884Z,99006.03
2018-12-03T23:44:47.001Z,99012.06
2018-12-03T23:47:16.149Z,99009.39
2018-12-03T23:49:45.203Z,99014.77
2018-12-03T23:52:14.487Z,99011.16
2018-12-03T23:54:43.616Z,99006.50
2018-12-03T23:57:12.687Z,99006.95
2018-12-03T23:59:41.791Z,99002.00
